Olanta, SC (29114)

1:26 AM EST on February 09, 2016 (GMT -0500)
Flying Tigers RC Club Inc. | | Change Station
CLOSE
Current Station
Personal Weather Station
Location: Scranton, SC
Elevation: 92 ft
Nearby Weather Stations
Active Advisory: Flood Warning Active Notice: Record Report

Elev 92 ft 33.90 °N, 79.69 °W | Updated 8 minutes ago

Clear
Clear
41.4 °F
Feels Like 35 °F
N
10.4
Wind Variable Wind from ENE

Today
High -- | Low -- °F
--% Chance of Precip.
Yesterday
High -- | Low -- °F
Precip. -- in
Pressure 29.69 in
Visibility 10.0 miles
Clouds Clear
Windchill 35 °F
Dew Point 34 °F
Humidity 75%
Rainfall 0.00 in
Snow Depth Not available.
7:10 AM 5:57 PM
New Moon, 1% visible
METAR KCKI 090615Z AUTO 25006KT 10SM CLR 05/00 A2969 RMK AO2
Pressure 29.69 in
Visibility 10.0 miles
Clouds Clear
Windchill 35 °F
Dew Point 34 °F
Humidity 75%
Rainfall 0.00 in
Snow Depth Not available.
7:10 AM 5:57 PM
New Moon, 1% visible
METAR KCKI 090615Z AUTO 25006KT 10SM CLR 05/00 A2969 RMK AO2

10-Day Weather Forecast

Almanac

Astronomy

Feb. 09, 2016 Rise Set
Actual Time
Civil Twilight
Nautical Twilight
Astronomical Twilight
Moon
Length of Visible Light
Length of Day
Tomorrow will be .
, % of the Moon is Illuminated

Today's Extremes

State Highs State Lows

Community

WunderPhotos

Upload Photos

1,891,571 photos uploaded!

WunderBlog® & News

Nearby

Air Quality

  Air Quality AQ Index Pollutant
Not available.

Snow Depth

Station Depth Elevation

Earthquake Activity

City Distance Mag. Time & Date
Minimum magnitude displayed is 2.5.

Coastal Water Temperatures

Place Temperature

Stations

Nearby Weather Stations

Station Location Temp. Windchill Dew Point Humidity Wind Precip. Elev Updated Type
                   

Watches & Warnings

Flood Warning
Issued: 8:27 PM EST Feb. 8, 2016 – National Weather Service

The Flood Warning continues for
the great Pee Dee at Pee Dee.
* Until further notice.
* At 8:00 PM Monday the stage was 21.97 feet.
* Flood stage is 19.0 feet.
* Minor flooding is occurring and minor flooding is forecast.
* Forecast... the river will continue rising to near 22.0 feet by after midnight
tonight then begin falling.
* Impact... at 23.0 feet... flooding will affect swamp and timberlands while also
disrupting logging operations. Operations will likely cease and equipment not
previously moved will remain trapped. Some farmland will have minor flooding
especially around Britton Neck.


Lat... Lon 3424 7962 3424 7950 3400 7945 3385 7932
          3385 7944 3398 7957